Time;durP1;ratioP1;P1;durP2;ratioP2;P2;SDS_P1;SDS_P2;PMS_P1;PMS_P2;Temp;Humidity;BMP_temperature;BMP_pressure;BME280_temperature;BME280_humidity;BME280_pressure;Samples;Min_cycle;Max_cycle;Signal;HPM_P1;HPM_P2
2021/10/24 00:01:50;;;;;;;1.97;1.87;;;;;;;21.25;60.07;98656.06;5026522;28;20284;-63
2021/10/24 00:04:17;;;;;;;1.83;1.73;;;;;;;21.24;60.80;98651.75;5024805;28;20233;-63
2021/10/24 00:06:44;;;;;;;2.37;2.10;;;;;;;21.25;60.49;98647.50;5024966;28;20289;-63
2021/10/24 00:09:10;;;;;;;1.87;1.60;;;;;;;21.25;60.08;98643.28;5026563;28;20660;-63
2021/10/24 00:11:37;;;;;;;2.10;1.90;;;;;;;21.15;59.83;98627.44;5026108;28;20650;-63
2021/10/24 00:14:07;;;;;;;1.70;1.60;;;;;;;21.26;60.13;98649.28;5026813;28;20236;-63
2021/10/24 00:16:34;;;;;;;1.90;1.80;;;;;;;21.26;60.11;98650.13;5026610;28;20209;-63
2021/10/24 00:19:00;;;;;;;2.10;1.90;;;;;;;21.24;60.63;98641.53;5026178;28;20202;-63
2021/10/24 00:21:27;;;;;;;2.00;1.90;;;;;;;21.25;60.10;98640.72;5002209;28;20307;-63
2021/10/24 00:23:54;;;;;;;2.07;1.83;;;;;;;21.26;59.99;98636.50;5027079;28;20251;-63
2021/10/24 00:26:20;;;;;;;2.33;2.13;;;;;;;21.26;60.20;98647.56;5026035;28;20765;-63
2021/10/24 00:28:47;;;;;;;2.77;2.00;;;;;;;21.26;60.23;98637.34;5026353;28;20292;-63
2021/10/24 00:31:14;;;;;;;2.23;1.90;;;;;;;21.26;60.51;98637.34;5026268;28;20674;-63
2021/10/24 00:33:40;;;;;;;2.17;1.90;;;;;;;21.26;60.44;98641.63;5025081;28;20596;-63
2021/10/24 00:36:20;;;;;;;2.10;1.73;;;;;;;21.10;60.17;98608.44;5021229;28;20205;-63
2021/10/24 00:38:46;;;;;;;2.20;2.00;;;;;;;21.27;60.35;98638.25;5028548;28;20738;-63
2021/10/24 00:41:22;;;;;;;2.23;2.03;;;;;;;21.27;60.34;98638.25;5030955;28;20231;-63
2021/10/24 00:43:49;;;;;;;2.10;1.90;;;;;;;21.26;60.23;98641.63;5027965;28;20257;-63
2021/10/24 00:46:15;;;;;;;1.60;1.50;;;;;;;21.27;60.39;98634.00;5030132;28;20296;-63
2021/10/24 00:48:59;;;;;;;2.27;1.97;;;;;;;21.27;60.04;98638.25;5025979;28;20288;-63
2021/10/24 00:51:26;;;;;;;2.13;1.93;;;;;;;21.25;60.20;98635.59;5008834;28;20339;-63
2021/10/24 00:53:53;;;;;;;2.07;1.83;;;;;;;20.31;60.64;98470.81;5012165;28;20229;-63
2021/10/24 00:56:20;;;;;;;2.00;1.90;;;;;;;21.24;60.36;98633.88;4998801;28;20302;-63
2021/10/24 00:58:47;;;;;;;1.93;1.70;;;;;;;21.24;60.41;98633.88;5026618;28;20209;-63
2021/10/24 01:01:13;;;;;;;2.03;1.80;;;;;;;21.24;59.68;98636.41;5024907;28;20683;-63
2021/10/24 01:03:40;;;;;;;2.00;1.90;;;;;;;20.95;59.84;98582.13;5028954;28;20222;-63
2021/10/24 01:06:07;;;;;;;2.30;2.07;;;;;;;21.23;60.25;98626.97;5028096;28;20209;-63
2021/10/24 01:08:35;;;;;;;2.23;2.03;;;;;;;21.24;60.02;98627.88;5008580;28;20292;-64
2021/10/24 01:11:02;;;;;;;2.30;2.10;;;;;;;21.23;60.17;98621.88;5010938;28;20226;-63
2021/10/24 01:13:30;;;;;;;2.20;2.00;;;;;;;21.23;60.10;98614.19;5029663;28;20206;-63
2021/10/24 01:16:14;;;;;;;1.80;1.70;;;;;;;21.24;59.88;98620.19;5011323;28;20229;-63
2021/10/24 01:18:41;;;;;;;2.33;2.10;;;;;;;21.23;60.14;98613.34;5029470;28;20292;-64
2021/10/24 01:21:08;;;;;;;2.20;2.00;;;;;;;21.23;59.85;98600.56;5024707;28;20320;-64
2021/10/24 01:23:34;;;;;;;2.20;2.00;;;;;;;21.23;59.77;98598.00;5029318;28;20332;-63
2021/10/24 01:26:02;;;;;;;2.20;2.00;;;;;;;21.23;59.92;98603.97;5029472;28;20225;-63
2021/10/24 01:28:29;;;;;;;1.93;1.73;;;;;;;20.96;59.68;98550.69;5029021;28;20309;-63
2021/10/24 01:30:55;;;;;;;2.27;1.70;;;;;;;21.23;59.87;98601.41;5025866;28;20336;-63
2021/10/24 01:33:22;;;;;;;2.40;2.20;;;;;;;21.23;59.80;98588.63;5029218;28;20205;-63
2021/10/24 01:36:05;;;;;;;1.83;1.60;;;;;;;21.24;59.71;98590.41;5029125;28;21481;-63
2021/10/24 01:38:31;;;;;;;2.10;1.90;;;;;;;21.25;60.09;98597.25;5027770;28;20205;-63
2021/10/24 01:40:58;;;;;;;3.20;2.03;;;;;;;21.25;59.92;98592.16;5029107;28;20221;-63
2021/10/24 01:43:25;;;;;;;1.93;1.83;;;;;;;21.26;60.09;98591.31;5025318;28;20255;-63
2021/10/24 01:45:52;;;;;;;1.90;1.80;;;;;;;20.24;60.10;98406.63;5028241;28;20302;-63
2021/10/24 01:48:19;;;;;;;2.60;2.17;;;;;;;21.27;60.00;98582.00;5026521;28;20296;-63
2021/10/24 01:50:46;;;;;;;1.83;1.73;;;;;;;21.27;60.09;98577.75;5028206;28;20343;-63
2021/10/24 01:53:32;;;;;;;2.30;2.10;;;;;;;21.28;60.14;98576.94;5028635;28;20300;-63
2021/10/24 01:56:00;;;;;;;2.07;1.87;;;;;;;21.29;60.05;98572.72;5027889;28;20289;-64
2021/10/24 01:58:26;;;;;;;1.97;1.80;;;;;;;21.30;60.00;98565.13;5026962;28;20248;-63
2021/10/24 02:00:53;;;;;;;1.93;1.83;;;;;;;21.30;60.05;98572.78;5028971;28;20296;-63
2021/10/24 02:03:20;;;;;;;2.03;1.80;;;;;;;21.32;60.20;98567.75;5028920;28;20209;-63
2021/10/24 02:05:46;;;;;;;2.23;2.03;;;;;;;21.31;60.05;98566.84;5021124;28;20249;-63
2021/10/24 02:08:13;;;;;;;2.40;2.20;;;;;;;21.31;60.21;98551.53;5028373;28;20296;-64
2021/10/24 02:10:40;;;;;;;2.43;1.80;;;;;;;21.32;59.87;98555.81;5024784;28;20317;-63
2021/10/24 02:13:07;;;;;;;2.20;2.00;;;;;;;21.33;60.08;98549.03;5028218;28;20584;-61
2021/10/24 02:15:35;;;;;;;2.20;2.00;;;;;;;21.33;60.12;98544.81;5028601;28;20280;-63
2021/10/24 02:18:03;;;;;;;1.97;1.87;;;;;;;21.34;60.08;98550.78;5028022;28;20229;-63
2021/10/24 02:20:29;;;;;;;2.37;2.10;;;;;;;21.34;60.00;98555.88;5028653;28;20316;-63
2021/10/24 02:22:56;;;;;;;2.27;2.07;;;;;;;21.34;59.96;98549.09;5028278;28;20296;-63
2021/10/24 02:25:22;;;;;;;2.30;1.93;;;;;;;20.58;59.94;98415.09;5027311;28;20253;-63
2021/10/24 02:27:49;;;;;;;2.43;2.10;;;;;;;21.36;60.06;98555.19;5028582;28;20655;-63
2021/10/24 02:30:16;;;;;;;2.00;1.90;;;;;;;21.36;59.98;98555.19;5028552;28;20752;-63
2021/10/24 02:32:43;;;;;;;2.27;2.07;;;;;;;21.36;60.12;98552.63;5028447;28;20714;-63
2021/10/24 02:35:10;;;;;;;2.53;2.13;;;;;;;21.36;59.86;98550.06;5024758;28;20315;-63
2021/10/24 02:37:36;;;;;;;2.17;2.00;;;;;;;21.37;59.72;98549.25;5024289;28;20300;-63
2021/10/24 02:40:04;;;;;;;2.00;1.80;;;;;;;21.37;60.06;98541.56;5026953;28;20312;-63
2021/10/24 02:42:31;;;;;;;2.10;1.90;;;;;;;21.39;59.77;98546.75;5027975;28;20209;-63
2021/10/24 02:44:57;;;;;;;2.23;2.03;;;;;;;21.39;59.78;98550.19;5026816;28;20229;-62
2021/10/24 02:47:24;;;;;;;2.23;2.03;;;;;;;21.40;59.24;98548.50;5028088;28;20237;-63
2021/10/24 02:49:50;;;;;;;2.17;1.97;;;;;;;20.39;59.83;98367.41;5027161;28;20261;-63
2021/10/24 02:52:17;;;;;;;2.00;1.90;;;;;;;21.39;60.16;98534.84;5027740;28;20239;-63
2021/10/24 02:54:43;;;;;;;3.00;2.17;;;;;;;21.40;59.91;98538.28;5028022;28;20297;-64
2021/10/24 02:57:10;;;;;;;2.53;1.90;;;;;;;21.41;59.76;98535.78;5007439;28;20224;-63
2021/10/24 02:59:37;;;;;;;2.10;1.90;;;;;;;21.40;59.69;98531.47;5024883;28;20225;-63
2021/10/24 03:02:03;;;;;;;2.27;2.03;;;;;;;21.40;59.61;98526.38;5027287;28;20274;-63
2021/10/24 03:04:30;;;;;;;2.30;2.10;;;;;;;21.42;59.30;98539.22;5027764;28;20233;-63
2021/10/24 03:06:56;;;;;;;2.63;2.20;;;;;;;21.15;59.74;98495.38;5023743;28;20228;-63
2021/10/24 03:09:23;;;;;;;2.10;1.90;;;;;;;21.41;60.11;98538.34;5009453;28;20562;-63
2021/10/24 03:11:50;;;;;;;2.30;2.07;;;;;;;20.61;59.86;98390.59;5027898;28;20240;-63
2021/10/24 03:14:16;;;;;;;2.13;1.93;;;;;;;21.42;59.96;98537.56;5022159;28;20650;-63
2021/10/24 03:16:43;;;;;;;2.50;2.30;;;;;;;21.43;59.59;98540.97;5026772;28;20205;-63
2021/10/24 03:19:09;;;;;;;2.43;2.00;;;;;;;21.43;59.47;98544.41;5026432;28;20224;-63
2021/10/24 03:21:36;;;;;;;2.70;1.90;;;;;;;20.97;59.60;98463.88;5027751;28;20333;-63
2021/10/24 03:24:04;;;;;;;3.57;2.23;;;;;;;21.42;59.77;98542.66;5027644;28;20280;-63
2021/10/24 03:26:31;;;;;;;2.50;2.30;;;;;;;21.43;59.53;98539.28;5026409;28;20247;-63
2021/10/24 03:28:58;;;;;;;2.67;2.20;;;;;;;21.43;59.47;98533.28;5027353;28;20693;-63
2021/10/24 03:31:25;;;;;;;2.30;2.10;;;;;;;21.43;59.46;98533.28;5026770;28;20267;-64
2021/10/24 03:33:52;;;;;;;2.10;1.90;;;;;;;21.44;59.64;98541.03;5027263;28;20206;-63
2021/10/24 03:36:19;;;;;;;2.30;2.10;;;;;;;21.43;59.51;98536.72;5025874;28;20650;-63
2021/10/24 03:38:45;;;;;;;2.23;1.93;;;;;;;21.44;59.55;98538.47;5027759;28;20753;-63
2021/10/24 03:41:12;;;;;;;2.77;2.10;;;;;;;21.44;59.54;98537.63;5026493;28;20229;-63
2021/10/24 03:43:39;;;;;;;2.10;1.90;;;;;;;21.00;59.58;98461.44;5025035;28;20318;-63
2021/10/24 03:46:06;;;;;;;2.00;1.90;;;;;;;21.44;59.30;98538.47;5026771;28;20637;-63
2021/10/24 03:48:33;;;;;;;2.20;2.00;;;;;;;21.44;59.53;98535.91;5026588;28;20213;-63
2021/10/24 03:50:59;;;;;;;1.80;1.70;;;;;;;21.44;59.29;98532.50;5026153;28;20316;-63
2021/10/24 03:53:26;;;;;;;2.13;1.93;;;;;;;21.38;59.59;98522.84;5021730;28;20205;-63
2021/10/24 03:55:53;;;;;;;2.30;2.07;;;;;;;21.45;59.67;98531.69;5021864;28;20288;-63
2021/10/24 03:58:20;;;;;;;1.97;1.80;;;;;;;21.44;59.46;98533.38;5025671;28;20685;-63
2021/10/24 04:00:46;;;;;;;2.10;1.90;;;;;;;21.43;59.30;98534.19;5024795;28;20657;-63
2021/10/24 04:03:13;;;;;;;2.20;2.00;;;;;;;21.44;59.45;98535.06;5009107;28;20213;-63
2021/10/24 04:05:46;;;;;;;2.20;2.00;;;;;;;21.44;59.67;98525.69;5025043;28;20229;-63
2021/10/24 04:08:13;;;;;;;2.73;2.10;;;;;;;21.45;59.58;98531.69;5009444;28;20256;-63
2021/10/24 04:10:40;;;;;;;2.57;2.10;;;;;;;21.44;59.50;98524.84;5025738;28;20571;-64
2021/10/24 04:13:06;;;;;;;2.33;2.13;;;;;;;21.43;59.82;98526.50;5025830;28;20248;-63
2021/10/24 04:15:33;;;;;;;2.27;2.07;;;;;;;21.42;59.31;98527.31;5024200;28;20306;-63
2021/10/24 04:17:59;;;;;;;2.20;2.00;;;;;;;21.41;59.35;98530.66;5026835;28;20220;-63
2021/10/24 04:20:26;;;;;;;2.10;1.90;;;;;;;21.39;59.46;98522.06;5027241;28;20645;-63
2021/10/24 04:22:54;;;;;;;2.30;2.00;;;;;;;21.38;59.19;98516.88;5025484;28;20233;-63
2021/10/24 04:25:21;;;;;;;2.33;2.10;;;;;;;21.37;59.80;98522.78;5020855;28;20260;-63
2021/10/24 04:27:47;;;;;;;2.10;2.00;;;;;;;21.37;59.62;98520.22;5026804;28;20649;-63
2021/10/24 04:30:14;;;;;;;2.30;2.10;;;;;;;21.37;59.49;98517.66;5026493;28;20258;-63
2021/10/24 04:32:43;;;;;;;2.27;2.07;;;;;;;21.37;59.57;98516.00;5026496;28;20296;-63
2021/10/24 04:35:13;;;;;;;2.33;2.03;;;;;;;21.37;59.56;98512.56;5020560;28;20276;-63
2021/10/24 04:37:40;;;;;;;2.20;2.00;;;;;;;21.36;59.65;98514.25;5027174;28;20241;-63
2021/10/24 04:40:07;;;;;;;2.20;2.00;;;;;;;21.37;59.55;98510.00;5026365;28;20253;-63
2021/10/24 04:42:33;;;;;;;2.47;2.27;;;;;;;21.36;59.43;98508.25;5022757;28;20646;-64
2021/10/24 04:45:00;;;;;;;2.20;2.00;;;;;;;21.38;59.57;98515.19;5026224;28;20305;-63
2021/10/24 04:47:26;;;;;;;2.30;2.10;;;;;;;21.37;59.70;98510.00;5026563;28;20296;-62
2021/10/24 04:49:53;;;;;;;2.30;2.10;;;;;;;21.36;59.52;98509.16;5026191;28;20663;-63
2021/10/24 04:52:20;;;;;;;2.17;1.97;;;;;;;21.36;59.50;98501.47;5025528;28;20240;-64
2021/10/24 04:54:46;;;;;;;2.33;2.13;;;;;;;21.36;59.38;98496.34;5026620;28;20289;-63
2021/10/24 04:57:13;;;;;;;2.33;2.00;;;;;;;21.36;59.53;98496.34;5025897;28;20389;-63
2021/10/24 04:59:39;;;;;;;2.20;1.97;;;;;;;21.37;59.80;98499.75;5026419;28;20304;-63
2021/10/24 05:02:06;;;;;;;2.00;1.90;;;;;;;21.37;59.89;98490.44;5024619;28;20722;-63
2021/10/24 05:04:33;;;;;;;2.30;2.10;;;;;;;21.37;59.74;98497.22;5024185;28;20213;-63
2021/10/24 05:06:59;;;;;;;2.30;2.10;;;;;;;21.36;59.42;98498.03;5026338;28;20288;-63
2021/10/24 05:09:26;;;;;;;2.30;2.10;;;;;;;21.36;59.38;98493.81;5026295;28;20206;-63
2021/10/24 05:11:52;;;;;;;2.00;1.90;;;;;;;21.36;59.50;98491.25;5026068;28;20237;-63
2021/10/24 05:14:19;;;;;;;2.37;2.17;;;;;;;21.37;59.35;98503.22;5023501;28;20723;-63
2021/10/24 05:16:45;;;;;;;2.60;2.03;;;;;;;21.37;59.45;98492.09;5026048;28;20292;-63
2021/10/24 05:19:12;;;;;;;2.40;2.20;;;;;;;21.37;59.17;98500.66;5025759;28;20779;-63
2021/10/24 05:21:39;;;;;;;2.20;2.00;;;;;;;21.37;59.78;98494.66;5023327;28;20265;-63
2021/10/24 05:24:05;;;;;;;2.00;1.90;;;;;;;21.36;59.49;98511.69;5026450;28;20249;-63
2021/10/24 05:26:32;;;;;;;2.00;1.90;;;;;;;21.37;59.98;98495.53;5025864;28;20316;-63
2021/10/24 05:28:59;;;;;;;2.33;2.13;;;;;;;21.37;59.46;98499.75;5027775;28;20293;-63
2021/10/24 05:31:26;;;;;;;2.27;1.90;;;;;;;21.36;59.69;98498.91;5028653;28;20720;-63
2021/10/24 05:33:53;;;;;;;2.37;1.97;;;;;;;21.35;59.45;98497.13;5029669;28;20649;-63
2021/10/24 05:36:19;;;;;;;3.27;2.13;;;;;;;21.35;59.55;98498.84;5029145;28;20204;-64
2021/10/24 05:38:46;;;;;;;2.53;2.33;;;;;;;21.34;59.69;98489.41;5028585;28;21005;-63
2021/10/24 05:41:13;;;;;;;2.13;1.97;;;;;;;21.32;59.35;98491.03;5029106;28;20308;-63
2021/10/24 05:43:39;;;;;;;2.20;2.00;;;;;;;21.32;59.79;98499.56;5028725;28;20293;-63
2021/10/24 05:46:07;;;;;;;2.07;1.90;;;;;;;21.32;59.58;98491.88;5029185;28;20263;-63
2021/10/24 05:48:34;;;;;;;2.30;2.10;;;;;;;21.33;59.33;98493.66;5028263;28;20588;-64
2021/10/24 05:51:00;;;;;;;2.07;1.90;;;;;;;21.26;59.33;98477.97;5062884;22;20331;-65
2021/10/24 05:53:27;;;;;;;2.10;2.00;;;;;;;21.03;59.18;98440.25;5028575;28;20671;-65
2021/10/24 05:55:55;;;;;;;2.40;2.10;;;;;;;21.21;59.19;98475.22;5029342;28;20197;-65
2021/10/24 05:58:22;;;;;;;2.53;2.30;;;;;;;21.34;59.33;98491.97;5014642;28;20263;-65
2021/10/24 06:00:49;;;;;;;2.30;2.10;;;;;;;21.33;59.01;98491.09;5043846;28;20327;-65
2021/10/24 06:03:15;;;;;;;2.97;2.03;;;;;;;21.34;59.15;98497.97;5049111;28;20205;-66
2021/10/24 06:05:42;;;;;;;2.20;2.00;;;;;;;21.30;58.99;98488.41;5046934;28;20256;-65
2021/10/24 06:08:17;;;;;;;2.27;2.07;;;;;;;21.34;59.26;98492.84;5048494;28;20255;-65
2021/10/24 06:10:43;;;;;;;2.40;2.20;;;;;;;21.34;59.52;98495.41;5047569;28;20282;-65
2021/10/24 06:13:10;;;;;;;2.40;2.20;;;;;;;21.35;59.17;98496.28;5048648;28;20693;-65
2021/10/24 06:15:39;;;;;;;2.53;2.33;;;;;;;21.31;59.06;98492.72;5048111;28;20780;-65
2021/10/24 06:18:06;;;;;;;2.37;2.17;;;;;;;21.35;59.13;98507.38;5027228;28;20200;-65
2021/10/24 06:20:33;;;;;;;2.73;2.20;;;;;;;21.35;59.37;98502.25;5030097;28;20303;-65
2021/10/24 06:23:00;;;;;;;2.40;2.17;;;;;;;21.35;58.77;98506.53;5047163;28;20235;-66
2021/10/24 06:25:32;;;;;;;6.40;2.20;;;;;;;21.35;58.99;98499.69;5048061;28;20331;-65
2021/10/24 06:27:58;;;;;;;2.77;2.13;;;;;;;21.35;58.65;98509.94;5047823;28;20240;-65
2021/10/24 06:30:25;;;;;;;2.63;2.37;;;;;;;21.35;59.31;98509.06;5048868;28;20225;-65
2021/10/24 06:32:52;;;;;;;2.27;1.90;;;;;;;20.50;58.96;98373.00;5030314;28;20228;-64
2021/10/24 06:35:18;;;;;;;2.50;2.30;;;;;;;21.34;59.34;98508.19;5046811;28;20705;-65
2021/10/24 06:37:46;;;;;;;2.30;2.10;;;;;;;21.34;59.16;98507.31;5048283;28;20205;-63
2021/10/24 06:40:14;;;;;;;2.17;1.90;;;;;;;21.31;58.90;98504.59;5030352;28;20344;-65
2021/10/24 06:42:40;;;;;;;4.23;2.10;;;;;;;21.32;58.83;98520.00;5043292;28;20204;-65
2021/10/24 06:45:07;;;;;;;6.17;2.70;;;;;;;21.32;57.03;98508.94;5047017;28;20921;-65
2021/10/24 06:47:34;;;;;;;6.40;2.90;;;;;;;21.27;53.50;98505.28;5029652;28;20702;-65
2021/10/24 06:50:01;;;;;;;5.33;3.00;;;;;;;21.30;52.50;98510.53;5029976;28;21979;-65
2021/10/24 06:52:27;;;;;;;4.33;3.20;;;;;;;21.15;52.25;98485.16;5047305;28;20244;-65
2021/10/24 06:54:55;;;;;;;6.13;3.60;;;;;;;21.20;52.87;98491.34;5029479;28;20201;-65
2021/10/24 06:57:22;;;;;;;7.50;3.10;;;;;;;21.27;53.07;98505.28;5045513;28;20243;-65
2021/10/24 06:59:49;;;;;;;6.10;3.60;;;;;;;21.28;53.73;98512.13;5046265;28;20255;-65
2021/10/24 07:02:17;;;;;;;4.97;3.20;;;;;;;21.24;54.05;98502.59;5046901;28;20243;-65
2021/10/24 07:04:44;;;;;;;3.83;2.77;;;;;;;21.29;54.63;98507.09;5028196;28;20287;-63
2021/10/24 07:07:11;;;;;;;5.60;3.13;;;;;;;21.27;54.90;98513.84;5044179;28;20260;-65
2021/10/24 07:09:38;;;;;;;5.97;3.10;;;;;;;21.21;54.94;98503.34;5025332;28;21011;-64
2021/10/24 07:12:09;;;;;;;7.37;3.47;;;;;;;21.29;55.04;98514.75;5018166;28;20251;-63
2021/10/24 07:14:35;;;;;;;5.53;3.30;;;;;;;21.30;54.58;98518.22;5046554;28;20227;-66
2021/10/24 07:17:02;;;;;;;7.40;3.03;;;;;;;21.29;53.41;98517.31;5046410;28;20867;-66
2021/10/24 07:19:29;;;;;;;7.73;3.43;;;;;;;21.26;53.71;98524.84;5046292;28;20255;-65
2021/10/24 07:21:55;;;;;;;10.83;3.37;;;;;;;21.16;54.17;98504.78;5045612;28;20244;-65
2021/10/24 07:24:22;;;;;;;3.97;3.03;;;;;;;21.20;54.70;98516.91;5026045;28;20236;-65
2021/10/24 07:26:48;;;;;;;5.17;3.13;;;;;;;21.27;54.88;98528.28;5046427;28;20256;-65
2021/10/24 07:29:15;;;;;;;8.37;3.37;;;;;;;21.27;55.36;98530.84;5027540;28;20295;-65
2021/10/24 07:31:42;;;;;;;5.27;2.87;;;;;;;21.23;55.31;98523.84;5043140;28;20225;-65
2021/10/24 07:34:08;;;;;;;5.93;3.10;;;;;;;21.24;55.51;98523.94;5047350;28;20205;-65
2021/10/24 07:36:35;;;;;;;6.23;2.90;;;;;;;21.22;55.23;98525.53;5044719;28;20229;-64
2021/10/24 07:39:02;;;;;;;7.37;3.30;;;;;;;21.27;55.73;98535.97;5046952;28;20205;-65
2021/10/24 07:41:28;;;;;;;3.57;2.63;;;;;;;21.27;55.80;98535.97;5046425;28;20220;-65
2021/10/24 07:43:55;;;;;;;7.73;3.10;;;;;;;21.23;55.97;98527.25;5027609;28;20308;-65
2021/10/24 07:46:21;;;;;;;6.87;2.93;;;;;;;21.25;56.00;98519.66;5045976;28;20692;-65
2021/10/24 07:48:52;;;;;;;4.67;2.53;;;;;;;21.28;56.25;98532.59;5045519;28;20807;-65
2021/10/24 07:51:19;;;;;;;4.43;2.77;;;;;;;21.28;56.30;98538.59;5045036;28;20724;-65
2021/10/24 07:53:45;;;;;;;6.17;3.03;;;;;;;21.28;56.42;98536.03;5046595;28;20229;-65
2021/10/24 07:56:12;;;;;;;5.70;3.13;;;;;;;21.29;56.71;98542.88;5045905;28;20197;-65
2021/10/24 07:58:40;;;;;;;11.27;3.33;;;;;;;21.22;56.86;98527.19;5043135;28;20244;-63
2021/10/24 08:01:07;;;;;;;4.90;3.07;;;;;;;21.30;56.90;98541.22;5045587;28;20306;-64
2021/10/24 08:03:34;;;;;;;4.10;2.70;;;;;;;20.99;56.86;98485.22;5044576;28;20203;-65
2021/10/24 08:06:01;;;;;;;7.33;2.60;;;;;;;21.29;57.12;98537.78;5027374;28;20307;-64
2021/10/24 08:08:27;;;;;;;6.10;2.90;;;;;;;21.02;56.79;98492.19;5043782;28;20241;-65
2021/10/24 08:10:54;;;;;;;5.87;3.20;;;;;;;21.31;57.20;98537.84;5023628;28;20312;-65
2021/10/24 08:13:21;;;;;;;4.17;2.63;;;;;;;21.26;57.59;98532.53;5023408;28;20658;-66
2021/10/24 08:15:48;;;;;;;5.97;2.63;;;;;;;21.30;57.41;98533.53;5040410;28;20296;-65
2021/10/24 08:18:16;;;;;;;4.23;2.43;;;;;;;21.30;57.49;98541.22;5045439;28;20290;-65
2021/10/24 08:20:45;;;;;;;6.97;2.80;;;;;;;21.29;57.32;98540.34;5028243;28;20316;-64
2021/10/24 08:23:12;;;;;;;4.27;2.60;;;;;;;21.20;57.25;98519.47;5040360;28;20894;-65
2021/10/24 08:25:38;;;;;;;5.93;3.23;;;;;;;21.20;57.35;98522.00;5015127;28;20717;-65
2021/10/24 08:28:05;;;;;;;6.83;3.07;;;;;;;21.22;56.65;98528.09;5045910;28;20667;-63
2021/10/24 08:30:32;;;;;;;8.83;3.13;;;;;;;21.29;57.20;98530.09;5028454;28;20308;-65
2021/10/24 08:32:58;;;;;;;9.10;2.93;;;;;;;21.29;57.01;98526.69;5044793;28;20284;-63
2021/10/24 08:35:25;;;;;;;5.43;2.87;;;;;;;21.29;57.29;98527.53;5045795;28;20773;-64
2021/10/24 08:37:52;;;;;;;5.60;2.80;;;;;;;21.28;57.15;98524.91;5044282;28;20232;-65
2021/10/24 08:40:19;;;;;;;8.33;2.50;;;;;;;21.28;57.08;98530.03;5045974;28;20278;-64
2021/10/24 08:42:47;;;;;;;13.93;3.50;;;;;;;21.30;57.26;98523.31;5045787;28;20287;-65
2021/10/24 08:45:13;;;;;;;6.00;2.43;;;;;;;21.29;57.14;98527.53;5026133;28;20207;-65
2021/10/24 08:47:40;;;;;;;13.70;3.33;;;;;;;21.30;57.31;98525.88;5046237;28;20277;-65
2021/10/24 08:50:08;;;;;;;7.43;3.00;;;;;;;21.21;57.25;98503.34;5045516;28;20290;-64
2021/10/24 08:52:38;;;;;;;4.60;2.63;;;;;;;20.33;57.17;98362.00;5015072;28;20207;-65
2021/10/24 08:55:07;;;;;;;7.43;2.90;;;;;;;21.32;57.15;98521.72;5046171;28;20284;-64
2021/10/24 08:57:33;;;;;;;7.50;2.57;;;;;;;21.29;57.15;98512.22;5039208;28;20248;-65
2021/10/24 09:00:00;;;;;;;6.20;2.87;;;;;;;21.32;57.18;98514.91;5047787;28;20299;-65
2021/10/24 09:02:52;;;;;;;7.80;2.90;;;;;;;21.32;56.94;98508.94;5032158;28;20706;-65
2021/10/24 09:05:46;;;;;;;6.83;2.63;;;;;;;21.31;56.93;98510.59;5049167;28;20228;-65
2021/10/24 09:08:16;;;;;;;9.40;2.93;;;;;;;21.31;56.63;98499.50;5041893;28;20248;-65
2021/10/24 09:10:45;;;;;;;4.03;2.43;;;;;;;21.31;56.62;98496.94;5047433;28;20256;-65
2021/10/24 09:13:14;;;;;;;5.17;2.80;;;;;;;21.30;56.65;98496.09;5046922;28;20288;-65
2021/10/24 09:16:00;;;;;;;6.37;2.90;;;;;;;21.30;56.74;98501.19;5029710;28;20244;-65
2021/10/24 09:18:34;;;;;;;8.50;3.17;;;;;;;21.31;56.82;98495.25;5048831;28;20817;-63
2021/10/24 09:21:16;;;;;;;12.27;3.40;;;;;;;21.31;56.89;98500.38;5048502;28;20260;-65
2021/10/24 09:23:46;;;;;;;7.40;2.90;;;;;;;21.28;56.80;98486.56;5049392;28;20197;-63
2021/10/24 09:26:26;;;;;;;6.40;3.27;;;;;;;21.28;56.64;98490.00;5047806;28;20217;-65
2021/10/24 09:29:07;;;;;;;7.13;2.80;;;;;;;21.31;56.50;98489.25;5029318;28;20507;-65
2021/10/24 09:31:33;;;;;;;5.93;2.80;;;;;;;21.32;56.59;98497.00;5030667;28;20366;-65
2021/10/24 09:34:16;;;;;;;6.03;3.00;;;;;;;21.33;56.69;98500.44;5045392;28;20205;-65
2021/10/24 09:36:56;;;;;;;7.93;3.07;;;;;;;21.32;56.87;98494.44;5048468;28;20287;-65
2021/10/24 09:39:26;;;;;;;8.93;3.20;;;;;;;21.23;56.71;98477.84;5048791;28;20270;-65
2021/10/24 09:42:14;;;;;;;9.47;3.23;;;;;;;21.33;56.95;98492.78;5031075;28;20260;-65
2021/10/24 09:45:05;;;;;;;5.93;2.90;;;;;;;21.34;56.70;98494.53;5029552;28;20240;-64
2021/10/24 09:47:32;;;;;;;5.93;2.90;;;;;;;21.34;56.74;98487.72;5045469;28;20857;-65
2021/10/24 09:49:59;;;;;;;4.73;2.50;;;;;;;21.33;56.63;98487.66;5048975;28;20347;-64
2021/10/24 09:52:27;;;;;;;5.70;2.77;;;;;;;21.30;56.81;98477.28;5031649;28;20298;-65
2021/10/24 09:54:54;;;;;;;7.27;2.77;;;;;;;21.31;56.69;98472.25;5048769;28;20239;-65
2021/10/24 09:57:22;;;;;;;3.43;2.70;;;;;;;21.25;56.67;98468.53;5048808;28;20224;-65
2021/10/24 09:59:52;;;;;;;3.20;2.70;;;;;;;21.28;56.67;98468.66;5030733;28;20555;-65
2021/10/24 10:02:19;;;;;;;8.33;2.87;;;;;;;21.32;56.62;98486.78;5049319;28;20241;-65
2021/10/24 10:04:46;;;;;;;5.83;2.87;;;;;;;21.28;56.59;98481.47;5048449;28;20212;-64
2021/10/24 10:07:16;;;;;;;4.57;2.90;;;;;;;21.33;56.67;98485.09;5048386;28;20316;-65
2021/10/24 10:09:44;;;;;;;5.37;2.87;;;;;;;21.30;56.83;98470.50;5045820;28;20236;-65
2021/10/24 10:12:13;;;;;;;5.17;2.87;;;;;;;21.21;56.71;98453.88;5048239;28;20315;-65
2021/10/24 10:14:40;;;;;;;6.87;3.23;;;;;;;21.28;56.74;98461.00;5030199;28;20201;-63
2021/10/24 10:17:10;;;;;;;5.20;3.07;;;;;;;21.34;56.70;98472.38;5044322;28;20220;-65
2021/10/24 10:19:41;;;;;;;5.30;2.57;;;;;;;21.34;56.75;98463.84;5030693;28;20204;-66
2021/10/24 10:22:29;;;;;;;5.90;2.87;;;;;;;21.34;57.07;98467.28;5042331;28;20633;-65
2021/10/24 10:25:00;;;;;;;4.53;3.07;;;;;;;21.30;56.86;98462.84;5044406;28;20295;-64
2021/10/24 10:27:27;;;;;;;7.23;2.73;;;;;;;21.34;56.82;98467.28;5044180;28;20729;-65
2021/10/24 10:29:55;;;;;;;7.43;3.20;;;;;;;21.35;56.74;98463.03;5046129;28;20205;-65
2021/10/24 10:32:24;;;;;;;5.03;2.53;;;;;;;21.35;56.98;98463.91;5047380;28;20254;-64
2021/10/24 10:35:06;;;;;;;3.57;2.67;;;;;;;21.35;56.95;98463.91;5027114;28;20232;-63
2021/10/24 10:37:50;;;;;;;3.33;2.20;;;;;;;21.35;56.65;98453.66;5046182;28;20243;-65
2021/10/24 10:40:32;;;;;;;7.50;2.77;;;;;;;21.35;56.92;98463.03;5025307;28;20274;-65
2021/10/24 10:43:12;;;;;;;5.50;2.57;;;;;;;21.33;56.95;98451.88;5046849;28;20205;-65
2021/10/24 10:45:39;;;;;;;4.00;2.63;;;;;;;21.26;57.13;98445.59;5043560;28;20340;-64
2021/10/24 10:48:30;;;;;;;4.73;2.63;;;;;;;21.33;56.98;98447.63;5025693;28;20334;-66
2021/10/24 10:51:21;;;;;;;3.33;2.30;;;;;;;21.33;57.19;98447.63;5029187;28;20251;-65
2021/10/24 10:53:48;;;;;;;4.30;2.43;;;;;;;21.34;57.28;98448.50;5046692;28;20292;-66
2021/10/24 10:56:16;;;;;;;6.07;2.47;;;;;;;21.33;57.21;98445.06;5047192;28;20224;-65
2021/10/24 10:58:47;;;;;;;4.17;2.60;;;;;;;21.33;57.44;98442.53;5030368;28;20620;-65
2021/10/24 11:01:28;;;;;;;7.20;2.80;;;;;;;21.25;57.34;98420.84;5047969;28;20231;-65
2021/10/24 11:04:19;;;;;;;4.67;2.50;;;;;;;21.34;57.29;98434.03;5045836;28;20212;-65
2021/10/24 11:06:52;;;;;;;3.40;2.47;;;;;;;21.35;57.29;98434.91;5047308;28;20252;-64
2021/10/24 11:09:41;;;;;;;4.73;2.30;;;;;;;21.34;57.17;98431.47;5047635;28;20247;-65
2021/10/24 11:12:09;;;;;;;2.97;2.10;;;;;;;21.26;57.03;98414.91;5041179;28;20193;-66
2021/10/24 11:14:35;;;;;;;3.63;2.57;;;;;;;21.35;57.24;98430.66;5046737;28;20320;-65
2021/10/24 11:17:02;;;;;;;4.20;2.30;;;;;;;21.30;57.25;98427.03;5047375;28;20262;-65
2021/10/24 11:19:32;;;;;;;5.37;2.30;;;;;;;21.35;57.12;98417.88;5047084;28;20204;-64
2021/10/24 11:22:10;;;;;;;5.83;2.40;;;;;;;21.36;57.28;98423.88;5045064;28;20309;-65
2021/10/24 11:24:37;;;;;;;6.27;2.37;;;;;;;21.36;57.47;98428.97;5046893;28;20224;-65
2021/10/24 11:27:05;;;;;;;7.10;2.30;;;;;;;21.27;57.36;98406.44;5046732;28;20219;-64
2021/10/24 11:29:35;;;;;;;5.37;2.20;;;;;;;21.35;57.44;98423.00;5029318;28;20241;-64
2021/10/24 11:32:25;;;;;;;8.07;2.60;;;;;;;21.35;57.38;98410.19;5028548;28;20226;-65
2021/10/24 11:34:55;;;;;;;6.53;2.30;;;;;;;21.35;57.49;98414.47;5045901;28;20291;-63
2021/10/24 11:37:41;;;;;;;7.17;2.70;;;;;;;21.34;57.35;98411.03;5046572;28;20295;-65
2021/10/24 11:40:13;;;;;;;4.63;2.53;;;;;;;21.28;57.71;98395.41;5038442;28;20689;-65
2021/10/24 11:42:40;;;;;;;4.30;2.60;;;;;;;21.35;57.74;98399.97;4998780;28;20300;-64